sensor_id;sensor_type;location;lat;lon;timestamp;temperature;humidity
63051;SHT30;49136;47.416;19.402;2023-04-01T00:01:19;8.27;99.47
63051;SHT30;49136;47.416;19.402;2023-04-01T00:03:45;8.21;99.51
63051;SHT30;49136;47.416;19.402;2023-04-01T00:06:16;8.19;99.46
63051;SHT30;49136;47.416;19.402;2023-04-01T00:08:42;8.16;99.58
63051;SHT30;49136;47.416;19.402;2023-04-01T00:11:07;8.14;99.56
63051;SHT30;49136;47.416;19.402;2023-04-01T00:13:33;8.11;99.57
63051;SHT30;49136;47.416;19.402;2023-04-01T00:15:58;8.07;99.57
63051;SHT30;49136;47.416;19.402;2023-04-01T00:18:24;8.04;99.72
63051;SHT30;49136;47.416;19.402;2023-04-01T00:20:52;8.04;99.67
63051;SHT30;49136;47.416;19.402;2023-04-01T00:23:18;8.04;99.63
63051;SHT30;49136;47.416;19.402;2023-04-01T00:25:44;8.00;99.71
63051;SHT30;49136;47.416;19.402;2023-04-01T00:28:11;7.96;99.70
63051;SHT30;49136;47.416;19.402;2023-04-01T00:30:36;7.97;99.63
63051;SHT30;49136;47.416;19.402;2023-04-01T00:33:02;7.99;99.82
63051;SHT30;49136;47.416;19.402;2023-04-01T00:35:28;7.96;99.82
63051;SHT30;49136;47.416;19.402;2023-04-01T00:37:54;7.94;99.78
63051;SHT30;49136;47.416;19.402;2023-04-01T00:40:36;7.92;99.79
63051;SHT30;49136;47.416;19.402;2023-04-01T00:43:02;7.87;99.73
63051;SHT30;49136;47.416;19.402;2023-04-01T00:45:30;7.92;99.85
63051;SHT30;49136;47.416;19.402;2023-04-01T00:47:59;7.89;99.85
63051;SHT30;49136;47.416;19.402;2023-04-01T00:50:28;7.83;99.82
63051;SHT30;49136;47.416;19.402;2023-04-01T00:52:55;7.74;99.91
63051;SHT30;49136;47.416;19.402;2023-04-01T00:55:21;7.74;99.95
63051;SHT30;49136;47.416;19.402;2023-04-01T00:57:49;7.67;99.89
63051;SHT30;49136;47.416;19.402;2023-04-01T01:00:16;7.61;99.89
63051;SHT30;49136;47.416;19.402;2023-04-01T01:02:44;7.62;99.99
63051;SHT30;49136;47.416;19.402;2023-04-01T01:05:14;7.58;99.98
63051;SHT30;49136;47.416;19.402;2023-04-01T01:08:06;7.52;99.99
63051;SHT30;49136;47.416;19.402;2023-04-01T01:10:37;7.43;99.99
63051;SHT30;49136;47.416;19.402;2023-04-01T01:15:45;7.38;99.99
63051;SHT30;49136;47.416;19.402;2023-04-01T01:18:19;7.43;99.99
63051;SHT30;49136;47.416;19.402;2023-04-01T01:35:35;7.24;99.99
63051;SHT30;49136;47.416;19.402;2023-04-01T01:38:17;7.23;99.99
63051;SHT30;49136;47.416;19.402;2023-04-01T01:40:44;7.22;99.99
63051;SHT30;49136;47.416;19.402;2023-04-01T01:43:16;7.22;99.99
63051;SHT30;49136;47.416;19.402;2023-04-01T01:45:47;7.20;99.99
63051;SHT30;49136;47.416;19.402;2023-04-01T01:48:15;7.15;99.99
63051;SHT30;49136;47.416;19.402;2023-04-01T01:50:43;7.13;99.99
63051;SHT30;49136;47.416;19.402;2023-04-01T01:53:11;7.23;99.99
63051;SHT30;49136;47.416;19.402;2023-04-01T01:55:40;7.23;99.99
63051;SHT30;49136;47.416;19.402;2023-04-01T01:58:16;7.30;99.99
63051;SHT30;49136;47.416;19.402;2023-04-01T02:00:45;7.31;99.99
63051;SHT30;49136;47.416;19.402;2023-04-01T02:03:13;7.34;99.99
63051;SHT30;49136;47.416;19.402;2023-04-01T02:05:40;7.33;99.99
63051;SHT30;49136;47.416;19.402;2023-04-01T02:08:16;7.37;99.99
63051;SHT30;49136;47.416;19.402;2023-04-01T02:10:52;7.37;99.99
63051;SHT30;49136;47.416;19.402;2023-04-01T02:13:27;7.33;99.99
63051;SHT30;49136;47.416;19.402;2023-04-01T02:15:58;7.27;99.99
63051;SHT30;49136;47.416;19.402;2023-04-01T02:18:25;7.24;99.99
63051;SHT30;49136;47.416;19.402;2023-04-01T02:20:51;7.26;99.99
63051;SHT30;49136;47.416;19.402;2023-04-01T02:23:17;7.33;99.99
63051;SHT30;49136;47.416;19.402;2023-04-01T02:25:42;7.34;99.99
63051;SHT30;49136;47.416;19.402;2023-04-01T02:28:10;7.35;99.99
63051;SHT30;49136;47.416;19.402;2023-04-01T02:30:38;7.37;99.99
63051;SHT30;49136;47.416;19.402;2023-04-01T02:33:05;7.44;99.99
63051;SHT30;49136;47.416;19.402;2023-04-01T02:35:33;7.52;99.99
63051;SHT30;49136;47.416;19.402;2023-04-01T02:38:00;7.59;99.99
63051;SHT30;49136;47.416;19.402;2023-04-01T02:40:26;7.61;99.99
63051;SHT30;49136;47.416;19.402;2023-04-01T02:42:51;7.65;99.99
63051;SHT30;49136;47.416;19.402;2023-04-01T02:45:17;7.65;99.99
63051;SHT30;49136;47.416;19.402;2023-04-01T02:47:43;7.65;99.99
63051;SHT30;49136;47.416;19.402;2023-04-01T02:50:09;7.68;99.99
63051;SHT30;49136;47.416;19.402;2023-04-01T02:52:35;7.69;99.99
63051;SHT30;49136;47.416;19.402;2023-04-01T02:55:01;7.69;99.99
63051;SHT30;49136;47.416;19.402;2023-04-01T02:57:27;7.74;99.99
63051;SHT30;49136;47.416;19.402;2023-04-01T02:59:52;7.68;99.99
63051;SHT30;49136;47.416;19.402;2023-04-01T03:02:18;7.67;99.99
63051;SHT30;49136;47.416;19.402;2023-04-01T03:04:43;7.64;99.99
63051;SHT30;49136;47.416;19.402;2023-04-01T03:07:09;7.55;99.99
63051;SHT30;49136;47.416;19.402;2023-04-01T03:09:38;7.58;99.99
63051;SHT30;49136;47.416;19.402;2023-04-01T03:12:03;7.51;99.99
63051;SHT30;49136;47.416;19.402;2023-04-01T03:14:29;7.41;99.99
63051;SHT30;49136;47.416;19.402;2023-04-01T03:16:54;7.38;99.99
63051;SHT30;49136;47.416;19.402;2023-04-01T03:19:20;7.27;99.99
63051;SHT30;49136;47.416;19.402;2023-04-01T03:21:45;7.24;99.99
63051;SHT30;49136;47.416;19.402;2023-04-01T03:24:11;7.06;99.99
63051;SHT30;49136;47.416;19.402;2023-04-01T03:26:36;6.98;99.99
63051;SHT30;49136;47.416;19.402;2023-04-01T03:29:02;6.88;99.99
63051;SHT30;49136;47.416;19.402;2023-04-01T03:31:27;6.82;99.99
63051;SHT30;49136;47.416;19.402;2023-04-01T03:33:53;6.74;99.99
63051;SHT30;49136;47.416;19.402;2023-04-01T03:36:18;6.67;99.99
63051;SHT30;49136;47.416;19.402;2023-04-01T03:38:44;6.63;99.99
63051;SHT30;49136;47.416;19.402;2023-04-01T03:41:14;6.74;99.99
63051;SHT30;49136;47.416;19.402;2023-04-01T03:43:41;6.87;99.99
63051;SHT30;49136;47.416;19.402;2023-04-01T03:46:06;6.92;99.99
63051;SHT30;49136;47.416;19.402;2023-04-01T03:48:32;6.92;99.99
63051;SHT30;49136;47.416;19.402;2023-04-01T03:50:57;6.93;99.99
63051;SHT30;49136;47.416;19.402;2023-04-01T03:53:22;7.05;99.99
63051;SHT30;49136;47.416;19.402;2023-04-01T03:55:48;7.06;99.99
63051;SHT30;49136;47.416;19.402;2023-04-01T03:58:14;7.02;99.99
63051;SHT30;49136;47.416;19.402;2023-04-01T04:00:39;7.08;99.99
63051;SHT30;49136;47.416;19.402;2023-04-01T04:03:06;6.98;99.99
63051;SHT30;49136;47.416;19.402;2023-04-01T04:05:31;6.95;99.99
63051;SHT30;49136;47.416;19.402;2023-04-01T04:07:57;6.99;99.99
63051;SHT30;49136;47.416;19.402;2023-04-01T04:10:22;6.96;99.99
63051;SHT30;49136;47.416;19.402;2023-04-01T04:12:50;6.93;99.99
63051;SHT30;49136;47.416;19.402;2023-04-01T04:15:16;6.88;99.99
63051;SHT30;49136;47.416;19.402;2023-04-01T04:17:41;6.91;99.99
63051;SHT30;49136;47.416;19.402;2023-04-01T04:20:07;6.87;99.99
63051;SHT30;49136;47.416;19.402;2023-04-01T04:22:34;6.92;99.99
63051;SHT30;49136;47.416;19.402;2023-04-01T04:24:59;6.89;99.99
63051;SHT30;49136;47.416;19.402;2023-04-01T04:27:25;6.91;99.99
63051;SHT30;49136;47.416;19.402;2023-04-01T04:29:51;6.91;99.99
63051;SHT30;49136;47.416;19.402;2023-04-01T04:32:16;6.96;99.99
63051;SHT30;49136;47.416;19.402;2023-04-01T04:34:41;7.00;99.99
63051;SHT30;49136;47.416;19.402;2023-04-01T04:37:07;7.00;99.99
63051;SHT30;49136;47.416;19.402;2023-04-01T04:39:32;7.05;99.99
63051;SHT30;49136;47.416;19.402;2023-04-01T04:41:58;7.17;99.99
63051;SHT30;49136;47.416;19.402;2023-04-01T04:44:23;7.26;99.99
63051;SHT30;49136;47.416;19.402;2023-04-01T04:46:49;7.26;99.99
63051;SHT30;49136;47.416;19.402;2023-04-01T04:49:15;7.23;99.99
63051;SHT30;49136;47.416;19.402;2023-04-01T04:51:40;7.24;99.99
63051;SHT30;49136;47.416;19.402;2023-04-01T04:54:06;7.23;99.99
63051;SHT30;49136;47.416;19.402;2023-04-01T04:56:32;7.26;99.99
63051;SHT30;49136;47.416;19.402;2023-04-01T04:58:58;7.27;99.99
63051;SHT30;49136;47.416;19.402;2023-04-01T05:01:24;7.33;99.99
63051;SHT30;49136;47.416;19.402;2023-04-01T05:03:50;7.40;99.99
63051;SHT30;49136;47.416;19.402;2023-04-01T05:06:16;7.47;99.99
63051;SHT30;49136;47.416;19.402;2023-04-01T05:08:44;7.59;99.99
63051;SHT30;49136;47.416;19.402;2023-04-01T05:11:12;7.64;99.99
63051;SHT30;49136;47.416;19.402;2023-04-01T05:13:38;7.68;99.99
63051;SHT30;49136;47.416;19.402;2023-04-01T05:16:09;7.74;99.99
63051;SHT30;49136;47.416;19.402;2023-04-01T05:18:34;7.78;99.99
63051;SHT30;49136;47.416;19.402;2023-04-01T05:21:00;7.82;99.99
63051;SHT30;49136;47.416;19.402;2023-04-01T05:23:25;7.92;99.99
63051;SHT30;49136;47.416;19.402;2023-04-01T05:25:51;8.00;99.99
63051;SHT30;49136;47.416;19.402;2023-04-01T05:28:19;8.10;99.99
63051;SHT30;49136;47.416;19.402;2023-04-01T05:30:45;8.19;99.99
63051;SHT30;49136;47.416;19.402;2023-04-01T05:33:12;8.21;99.99
63051;SHT30;49136;47.416;19.402;2023-04-01T05:35:39;8.21;99.99
63051;SHT30;49136;47.416;19.402;2023-04-01T05:38:05;8.30;99.99
63051;SHT30;49136;47.416;19.402;2023-04-01T05:40:31;8.27;99.99
63051;SHT30;49136;47.416;19.402;2023-04-01T05:42:58;8.24;99.99
63051;SHT30;49136;47.416;19.402;2023-04-01T05:45:24;8.35;99.99
63051;SHT30;49136;47.416;19.402;2023-04-01T05:47:50;8.44;99.99
63051;SHT30;49136;47.416;19.402;2023-04-01T05:50:15;8.54;99.99
63051;SHT30;49136;47.416;19.402;2023-04-01T05:52:41;8.61;99.99
63051;SHT30;49136;47.416;19.402;2023-04-01T05:55:07;8.63;99.99
63051;SHT30;49136;47.416;19.402;2023-04-01T05:57:33;8.72;99.99
63051;SHT30;49136;47.416;19.402;2023-04-01T05:59:58;8.83;99.99
63051;SHT30;49136;47.416;19.402;2023-04-01T06:02:23;8.94;99.99
63051;SHT30;49136;47.416;19.402;2023-04-01T06:04:54;9.08;99.99
63051;SHT30;49136;47.416;19.402;2023-04-01T06:07:24;9.10;99.99
63051;SHT30;49136;47.416;19.402;2023-04-01T06:09:50;9.32;99.99
63051;SHT30;49136;47.416;19.402;2023-04-01T06:15:06;9.53;99.99
63051;SHT30;49136;47.416;19.402;2023-04-01T06:17:47;9.63;99.99
63051;SHT30;49136;47.416;19.402;2023-04-01T06:28:30;9.97;99.99
63051;SHT30;49136;47.416;19.402;2023-04-01T06:42:15;10.91;97.23
63051;SHT30;49136;47.416;19.402;2023-04-01T06:45:07;11.22;96.56
63051;SHT30;49136;47.416;19.402;2023-04-01T06:48:02;11.44;95.92
63051;SHT30;49136;47.416;19.402;2023-04-01T06:56:19;12.05;92.59
63051;SHT30;49136;47.416;19.402;2023-04-01T06:59:09;12.23;92.34
63051;SHT30;49136;47.416;19.402;2023-04-01T07:01:43;12.32;91.25
63051;SHT30;49136;47.416;19.402;2023-04-01T07:06:45;12.37;90.16
63051;SHT30;49136;47.416;19.402;2023-04-01T07:09:16;12.43;90.80
63051;SHT30;49136;47.416;19.402;2023-04-01T07:11:43;12.41;90.59
63051;SHT30;49136;47.416;19.402;2023-04-01T07:14:44;12.44;89.63
63051;SHT30;49136;47.416;19.402;2023-04-01T07:17:23;12.43;89.04
63051;SHT30;49136;47.416;19.402;2023-04-01T07:20:23;12.57;89.63
63051;SHT30;49136;47.416;19.402;2023-04-01T07:22:51;12.58;88.83
63051;SHT30;49136;47.416;19.402;2023-04-01T07:25:21;12.64;87.79
63051;SHT30;49136;47.416;19.402;2023-04-01T07:27:48;12.58;85.71
63051;SHT30;49136;47.416;19.402;2023-04-01T07:30:22;12.72;87.20
63051;SHT30;49136;47.416;19.402;2023-04-01T07:35:23;12.71;85.38
63051;SHT30;49136;47.416;19.402;2023-04-01T07:51:28;13.26;82.79
63051;SHT30;49136;47.416;19.402;2023-04-01T07:54:09;13.33;82.03
63051;SHT30;49136;47.416;19.402;2023-04-01T07:59:19;13.72;82.46
63051;SHT30;49136;47.416;19.402;2023-04-01T08:07:29;14.18;80.18
63051;SHT30;49136;47.416;19.402;2023-04-01T08:20:56;14.65;75.48
63051;SHT30;49136;47.416;19.402;2023-04-01T08:23:27;14.49;73.42
63051;SHT30;49136;47.416;19.402;2023-04-01T08:26:42;14.79;74.38
63051;SHT30;49136;47.416;19.402;2023-04-01T08:29:03;14.96;73.34
63051;SHT30;49136;47.416;19.402;2023-04-01T08:32:12;14.71;72.00
63051;SHT30;49136;47.416;19.402;2023-04-01T08:34:42;14.65;73.22
63051;SHT30;49136;47.416;19.402;2023-04-01T08:37:22;14.45;72.16
63051;SHT30;49136;47.416;19.402;2023-04-01T08:43:11;14.13;72.94
63051;SHT30;49136;47.416;19.402;2023-04-01T08:45:47;14.30;74.07
63051;SHT30;49136;47.416;19.402;2023-04-01T08:51:07;14.66;75.12
63051;SHT30;49136;47.416;19.402;2023-04-01T09:21:23;13.53;72.62
63051;SHT30;49136;47.416;19.402;2023-04-01T09:29:30;14.00;73.31
63051;SHT30;49136;47.416;19.402;2023-04-01T09:35:23;14.79;71.62
63051;SHT30;49136;47.416;19.402;2023-04-01T09:40:18;15.36;68.64
63051;SHT30;49136;47.416;19.402;2023-04-01T09:46:16;15.53;69.91
63051;SHT30;49136;47.416;19.402;2023-04-01T10:44:11;15.41;68.67
63051;SHT30;49136;47.416;19.402;2023-04-01T10:52:54;15.07;70.44
63051;SHT30;49136;47.416;19.402;2023-04-01T10:55:34;14.86;71.13
63051;SHT30;49136;47.416;19.402;2023-04-01T11:26:16;15.46;71.68
63051;SHT30;49136;47.416;19.402;2023-04-01T11:31:44;15.63;70.65
63051;SHT30;49136;47.416;19.402;2023-04-01T11:37:36;15.45;70.96
63051;SHT30;49136;47.416;19.402;2023-04-01T11:41:02;15.30;69.99
63051;SHT30;49136;47.416;19.402;2023-04-01T11:46:12;16.00;69.28
63051;SHT30;49136;47.416;19.402;2023-04-01T11:54:28;16.18;68.55
63051;SHT30;49136;47.416;19.402;2023-04-01T12:22:19;14.84;70.75
63051;SHT30;49136;47.416;19.402;2023-04-01T12:25:06;14.65;69.96
63051;SHT30;49136;47.416;19.402;2023-04-01T12:27:43;15.18;71.24
63051;SHT30;49136;47.416;19.402;2023-04-01T12:41:08;16.15;67.91
63051;SHT30;49136;47.416;19.402;2023-04-01T12:46:22;16.61;66.93
63051;SHT30;49136;47.416;19.402;2023-04-01T12:49:34;16.66;65.54
63051;SHT30;49136;47.416;19.402;2023-04-01T13:16:45;15.82;64.90
63051;SHT30;49136;47.416;19.402;2023-04-01T13:19:14;16.28;65.98
63051;SHT30;49136;47.416;19.402;2023-04-01T13:27:01;16.70;64.11
63051;SHT30;49136;47.416;19.402;2023-04-01T13:29:36;16.88;64.62
63051;SHT30;49136;47.416;19.402;2023-04-01T13:41:09;16.80;62.60
63051;SHT30;49136;47.416;19.402;2023-04-01T13:43:47;16.71;64.74
63051;SHT30;49136;47.416;19.402;2023-04-01T13:46:26;16.60;62.58
63051;SHT30;49136;47.416;19.402;2023-04-01T13:49:01;16.92;62.78
63051;SHT30;49136;47.416;19.402;2023-04-01T13:54:14;16.28;62.32
63051;SHT30;49136;47.416;19.402;2023-04-01T13:56:50;16.77;63.61
63051;SHT30;49136;47.416;19.402;2023-04-01T14:13:44;16.83;59.98
63051;SHT30;49136;47.416;19.402;2023-04-01T14:35:51;16.55;62.46
63051;SHT30;49136;47.416;19.402;2023-04-01T14:44:49;17.05;61.87
63051;SHT30;49136;47.416;19.402;2023-04-01T14:50:13;16.76;61.25
63051;SHT30;49136;47.416;19.402;2023-04-01T14:52:43;16.84;62.20
63051;SHT30;49136;47.416;19.402;2023-04-01T14:58:15;16.66;63.09
63051;SHT30;49136;47.416;19.402;2023-04-01T15:00:58;16.87;62.19
63051;SHT30;49136;47.416;19.402;2023-04-01T15:26:10;16.67;63.30
63051;SHT30;49136;47.416;19.402;2023-04-01T15:34:34;16.11;64.07
63051;SHT30;49136;47.416;19.402;2023-04-01T15:40:07;15.70;63.98
63051;SHT30;49136;47.416;19.402;2023-04-01T15:50:28;15.43;65.35
63051;SHT30;49136;47.416;19.402;2023-04-01T15:53:13;15.27;66.11
63051;SHT30;49136;47.416;19.402;2023-04-01T15:55:57;15.18;66.37
63051;SHT30;49136;47.416;19.402;2023-04-01T16:01:59;14.97;67.48
63051;SHT30;49136;47.416;19.402;2023-04-01T16:04:48;14.82;67.44
63051;SHT30;49136;47.416;19.402;2023-04-01T16:10:23;14.39;68.38
63051;SHT30;49136;47.416;19.402;2023-04-01T16:27:11;13.65;72.55
63051;SHT30;49136;47.416;19.402;2023-04-01T16:41:41;13.19;73.26
63051;SHT30;49136;47.416;19.402;2023-04-01T16:46:58;13.04;72.62
63051;SHT30;49136;47.416;19.402;2023-04-01T16:49:29;12.96;73.03
63051;SHT30;49136;47.416;19.402;2023-04-01T16:54:47;12.93;72.32
63051;SHT30;49136;47.416;19.402;2023-04-01T16:57:25;12.84;72.42
63051;SHT30;49136;47.416;19.402;2023-04-01T17:00:00;12.67;73.12
63051;SHT30;49136;47.416;19.402;2023-04-01T17:02:43;12.57;73.43
63051;SHT30;49136;47.416;19.402;2023-04-01T17:05:13;12.43;73.52
63051;SHT30;49136;47.416;19.402;2023-04-01T17:13:40;11.99;75.76
63051;SHT30;49136;47.416;19.402;2023-04-01T17:22:25;11.89;75.79
63051;SHT30;49136;47.416;19.402;2023-04-01T17:28:05;11.75;76.40
63051;SHT30;49136;47.416;19.402;2023-04-01T17:30:39;11.60;77.09
63051;SHT30;49136;47.416;19.402;2023-04-01T17:33:41;11.57;77.22
63051;SHT30;49136;47.416;19.402;2023-04-01T17:39:35;11.57;77.23
63051;SHT30;49136;47.416;19.402;2023-04-01T17:44:44;11.59;77.35
63051;SHT30;49136;47.416;19.402;2023-04-01T17:47:29;11.50;77.87
63051;SHT30;49136;47.416;19.402;2023-04-01T17:53:22;11.23;78.63
63051;SHT30;49136;47.416;19.402;2023-04-01T17:55:59;11.34;78.39
63051;SHT30;49136;47.416;19.402;2023-04-01T18:01:44;10.94;79.80
63051;SHT30;49136;47.416;19.402;2023-04-01T18:15:49;10.50;81.21
63051;SHT30;49136;47.416;19.402;2023-04-01T18:21:06;10.35;81.26
63051;SHT30;49136;47.416;19.402;2023-04-01T18:23:41;10.48;81.58
63051;SHT30;49136;47.416;19.402;2023-04-01T18:26:34;10.33;81.40
63051;SHT30;49136;47.416;19.402;2023-04-01T18:32:12;10.12;82.65
63051;SHT30;49136;47.416;19.402;2023-04-01T18:46:24;9.50;85.56
63051;SHT30;49136;47.416;19.402;2023-04-01T18:48:38;9.42;85.89
63051;SHT30;49136;47.416;19.402;2023-04-01T18:51:24;9.36;85.98
63051;SHT30;49136;47.416;19.402;2023-04-01T18:54:02;9.34;85.55
63051;SHT30;49136;47.416;19.402;2023-04-01T18:56:34;9.29;85.51
63051;SHT30;49136;47.416;19.402;2023-04-01T18:59:26;9.25;85.76
63051;SHT30;49136;47.416;19.402;2023-04-01T19:04:39;9.20;85.63
63051;SHT30;49136;47.416;19.402;2023-04-01T19:21:21;8.89;85.59
63051;SHT30;49136;47.416;19.402;2023-04-01T19:32:14;8.66;87.59
63051;SHT30;49136;47.416;19.402;2023-04-01T19:38:11;8.55;88.43
63051;SHT30;49136;47.416;19.402;2023-04-01T19:40:49;8.35;87.80
63051;SHT30;49136;47.416;19.402;2023-04-01T19:43:44;8.26;88.88
63051;SHT30;49136;47.416;19.402;2023-04-01T19:46:40;8.16;88.64
63051;SHT30;49136;47.416;19.402;2023-04-01T19:51:57;7.93;89.33
63051;SHT30;49136;47.416;19.402;2023-04-01T20:08:10;7.76;91.30
63051;SHT30;49136;47.416;19.402;2023-04-01T20:11:20;7.79;92.36
63051;SHT30;49136;47.416;19.402;2023-04-01T20:14:07;7.76;92.39
63051;SHT30;49136;47.416;19.402;2023-04-01T20:19:50;7.75;92.61
63051;SHT30;49136;47.416;19.402;2023-04-01T20:25:10;7.62;92.92
63051;SHT30;49136;47.416;19.402;2023-04-01T20:27:44;7.50;92.92
63051;SHT30;49136;47.416;19.402;2023-04-01T20:36:20;7.26;93.44
63051;SHT30;49136;47.416;19.402;2023-04-01T20:44:25;6.88;94.16
63051;SHT30;49136;47.416;19.402;2023-04-01T21:07:45;6.14;96.90
63051;SHT30;49136;47.416;19.402;2023-04-01T21:19:01;5.74;97.59
63051;SHT30;49136;47.416;19.402;2023-04-01T21:27:39;5.64;98.63
63051;SHT30;49136;47.416;19.402;2023-04-01T21:42:00;5.24;99.48
63051;SHT30;49136;47.416;19.402;2023-04-01T22:06:47;5.28;98.87
63051;SHT30;49136;47.416;19.402;2023-04-01T22:09:23;5.34;99.20
63051;SHT30;49136;47.416;19.402;2023-04-01T22:17:38;5.05;99.56
63051;SHT30;49136;47.416;19.402;2023-04-01T22:20:28;4.97;99.95
63051;SHT30;49136;47.416;19.402;2023-04-01T22:23:11;5.10;99.22
63051;SHT30;49136;47.416;19.402;2023-04-01T22:28:42;4.86;99.71
63051;SHT30;49136;47.416;19.402;2023-04-01T22:31:14;4.76;99.99
63051;SHT30;49136;47.416;19.402;2023-04-01T22:39:26;4.56;99.99
63051;SHT30;49136;47.416;19.402;2023-04-01T22:44:51;4.38;99.99
63051;SHT30;49136;47.416;19.402;2023-04-01T22:52:33;4.30;99.99
63051;SHT30;49136;47.416;19.402;2023-04-01T22:55:17;4.18;99.99
63051;SHT30;49136;47.416;19.402;2023-04-01T22:57:52;4.14;99.99
63051;SHT30;49136;47.416;19.402;2023-04-01T23:00:30;4.07;99.99
63051;SHT30;49136;47.416;19.402;2023-04-01T23:05:41;4.00;99.99
63051;SHT30;49136;47.416;19.402;2023-04-01T23:11:24;4.00;99.99
63051;SHT30;49136;47.416;19.402;2023-04-01T23:16:43;3.93;99.99
63051;SHT30;49136;47.416;19.402;2023-04-01T23:21:53;4.04;99.99
63051;SHT30;49136;47.416;19.402;2023-04-01T23:24:25;4.09;99.99
63051;SHT30;49136;47.416;19.402;2023-04-01T23:29:29;4.25;99.99
63051;SHT30;49136;47.416;19.402;2023-04-01T23:32:00;4.30;99.99
63051;SHT30;49136;47.416;19.402;2023-04-01T23:34:35;4.18;99.99
63051;SHT30;49136;47.416;19.402;2023-04-01T23:37:04;4.34;99.99
63051;SHT30;49136;47.416;19.402;2023-04-01T23:39:34;4.42;99.99
63051;SHT30;49136;47.416;19.402;2023-04-01T23:42:07;4.41;99.99
63051;SHT30;49136;47.416;19.402;2023-04-01T23:44:37;4.46;99.99
63051;SHT30;49136;47.416;19.402;2023-04-01T23:47:06;4.44;99.99
63051;SHT30;49136;47.416;19.402;2023-04-01T23:49:41;4.41;99.99
63051;SHT30;49136;47.416;19.402;2023-04-01T23:52:13;4.51;99.99
63051;SHT30;49136;47.416;19.402;2023-04-01T23:55:01;4.41;99.99
63051;SHT30;49136;47.416;19.402;2023-04-01T23:57:34;4.40;99.99
